sensor_id;sensor_type;location;lat;lon;timestamp;pressure;altitude;pressure_sealevel;temperature;humidity
43691;BME280;29293;52.190;21.226;2023-08-08T00:06:14;99430.71;;;14.66;100.00
43691;BME280;29293;52.190;21.226;2023-08-08T00:21:21;99446.73;;;14.59;100.00
43691;BME280;29293;52.190;21.226;2023-08-08T00:36:28;99465.71;;;14.50;100.00
43691;BME280;29293;52.190;21.226;2023-08-08T00:51:35;99478.86;;;14.40;100.00
43691;BME280;29293;52.190;21.226;2023-08-08T01:06:47;99494.29;;;14.33;100.00
43691;BME280;29293;52.190;21.226;2023-08-08T01:22:01;99509.95;;;14.26;100.00
43691;BME280;29293;52.190;21.226;2023-08-08T01:37:13;99538.33;;;14.28;100.00
43691;BME280;29293;52.190;21.226;2023-08-08T01:52:22;99553.65;;;14.17;100.00
43691;BME280;29293;52.190;21.226;2023-08-08T02:07:28;99561.49;;;14.02;100.00
43691;BME280;29293;52.190;21.226;2023-08-08T02:22:35;99576.99;;;13.93;100.00
43691;BME280;29293;52.190;21.226;2023-08-08T02:37:42;99593.73;;;13.80;100.00
43691;BME280;29293;52.190;21.226;2023-08-08T02:52:49;99614.36;;;13.69;100.00
43691;BME280;29293;52.190;21.226;2023-08-08T03:07:57;99628.92;;;13.52;100.00
43691;BME280;29293;52.190;21.226;2023-08-08T03:23:04;99651.30;;;13.33;100.00
43691;BME280;29293;52.190;21.226;2023-08-08T03:38:10;99669.83;;;13.14;100.00
43691;BME280;29293;52.190;21.226;2023-08-08T03:53:18;99685.38;;;13.00;100.00
43691;BME280;29293;52.190;21.226;2023-08-08T04:08:26;99711.19;;;12.94;100.00
43691;BME280;29293;52.190;21.226;2023-08-08T04:23:33;99732.80;;;12.91;100.00
43691;BME280;29293;52.190;21.226;2023-08-08T04:38:40;99752.41;;;12.91;100.00
43691;BME280;29293;52.190;21.226;2023-08-08T04:53:47;99764.04;;;13.00;100.00
43691;BME280;29293;52.190;21.226;2023-08-08T05:08:53;99774.30;;;13.22;100.00
43691;BME280;29293;52.190;21.226;2023-08-08T05:24:02;99786.65;;;13.41;100.00
43691;BME280;29293;52.190;21.226;2023-08-08T05:39:09;99798.55;;;13.72;100.00
43691;BME280;29293;52.190;21.226;2023-08-08T05:54:16;99814.94;;;14.00;100.00
43691;BME280;29293;52.190;21.226;2023-08-08T06:09:23;99821.41;;;14.32;100.00
43691;BME280;29293;52.190;21.226;2023-08-08T06:24:29;99834.90;;;14.66;100.00
43691;BME280;29293;52.190;21.226;2023-08-08T06:39:37;99844.52;;;14.79;100.00
43691;BME280;29293;52.190;21.226;2023-08-08T06:54:45;99853.16;;;15.09;100.00
43691;BME280;29293;52.190;21.226;2023-08-08T07:09:59;99860.03;;;15.12;100.00
43691;BME280;29293;52.190;21.226;2023-08-08T07:25:08;99864.98;;;15.16;100.00
43691;BME280;29293;52.190;21.226;2023-08-08T07:40:17;99865.05;;;15.52;100.00
43691;BME280;29293;52.190;21.226;2023-08-08T07:55:25;99862.95;;;15.92;100.00
43691;BME280;29293;52.190;21.226;2023-08-08T08:10:32;99855.39;;;16.49;100.00
43691;BME280;29293;52.190;21.226;2023-08-08T08:25:39;99867.72;;;16.75;100.00
43691;BME280;29293;52.190;21.226;2023-08-08T08:40:47;99868.70;;;17.09;100.00
43691;BME280;29293;52.190;21.226;2023-08-08T08:55:54;99877.70;;;17.64;100.00
43691;BME280;29293;52.190;21.226;2023-08-08T09:11:03;99874.67;;;17.55;100.00
43691;BME280;29293;52.190;21.226;2023-08-08T09:26:12;99886.52;;;17.86;100.00
43691;BME280;29293;52.190;21.226;2023-08-08T09:41:20;99894.76;;;17.34;100.00
43691;BME280;29293;52.190;21.226;2023-08-08T09:56:27;99900.84;;;17.30;100.00
43691;BME280;29293;52.190;21.226;2023-08-08T10:11:35;99898.84;;;18.30;100.00
43691;BME280;29293;52.190;21.226;2023-08-08T10:26:56;99903.49;;;18.15;100.00
43691;BME280;29293;52.190;21.226;2023-08-08T10:42:06;99897.54;;;18.85;100.00
43691;BME280;29293;52.190;21.226;2023-08-08T10:57:17;99913.91;;;18.53;100.00
43691;BME280;29293;52.190;21.226;2023-08-08T11:12:24;99913.36;;;19.13;100.00
43691;BME280;29293;52.190;21.226;2023-08-08T11:27:32;99922.89;;;18.65;100.00
43691;BME280;29293;52.190;21.226;2023-08-08T11:42:39;99924.09;;;18.22;100.00
43691;BME280;29293;52.190;21.226;2023-08-08T11:57:47;99928.28;;;18.36;100.00
43691;BME280;29293;52.190;21.226;2023-08-08T12:12:57;99936.95;;;18.85;100.00
43691;BME280;29293;52.190;21.226;2023-08-08T12:28:06;99937.39;;;20.17;100.00
43691;BME280;29293;52.190;21.226;2023-08-08T12:43:13;99939.40;;;21.38;90.91
43691;BME280;29293;52.190;21.226;2023-08-08T12:58:25;99943.30;;;21.40;77.05
43691;BME280;29293;52.190;21.226;2023-08-08T13:13:32;99945.79;;;19.96;76.22
43691;BME280;29293;52.190;21.226;2023-08-08T13:28:39;99944.40;;;20.25;76.03
43691;BME280;29293;52.190;21.226;2023-08-08T13:43:46;99945.34;;;20.02;76.91
43691;BME280;29293;52.190;21.226;2023-08-08T13:58:56;99963.87;;;19.05;83.53
43691;BME280;29293;52.190;21.226;2023-08-08T14:14:07;99970.39;;;18.53;83.23
43691;BME280;29293;52.190;21.226;2023-08-08T14:29:19;99979.29;;;18.37;80.69
43691;BME280;29293;52.190;21.226;2023-08-08T14:44:29;99992.98;;;18.24;85.68
43691;BME280;29293;52.190;21.226;2023-08-08T14:59:36;99991.98;;;18.39;85.22
43691;BME280;29293;52.190;21.226;2023-08-08T15:14:43;99984.67;;;19.07;81.35
43691;BME280;29293;52.190;21.226;2023-08-08T15:29:50;99984.83;;;18.70;86.66
43691;BME280;29293;52.190;21.226;2023-08-08T15:44:56;99982.17;;;18.07;98.65
43691;BME280;29293;52.190;21.226;2023-08-08T16:00:04;99978.39;;;17.80;100.00
43691;BME280;29293;52.190;21.226;2023-08-08T16:15:11;99980.25;;;17.57;100.00
43691;BME280;29293;52.190;21.226;2023-08-08T16:30:20;99983.15;;;17.49;100.00
43691;BME280;29293;52.190;21.226;2023-08-08T16:45:27;99984.80;;;17.45;100.00
43691;BME280;29293;52.190;21.226;2023-08-08T17:00:39;99992.46;;;17.37;100.00
43691;BME280;29293;52.190;21.226;2023-08-08T17:15:47;99994.23;;;17.49;100.00
43691;BME280;29293;52.190;21.226;2023-08-08T17:30:56;99998.29;;;17.46;99.75
43691;BME280;29293;52.190;21.226;2023-08-08T17:46:10;100013.88;;;17.41;99.30
43691;BME280;29293;52.190;21.226;2023-08-08T18:01:17;100022.98;;;17.13;100.00
43691;BME280;29293;52.190;21.226;2023-08-08T18:16:23;100026.73;;;16.72;100.00
43691;BME280;29293;52.190;21.226;2023-08-08T18:31:30;100039.14;;;16.07;100.00
43691;BME280;29293;52.190;21.226;2023-08-08T18:46:38;100058.11;;;15.30;100.00
43691;BME280;29293;52.190;21.226;2023-08-08T19:01:46;100053.44;;;14.56;100.00
43691;BME280;29293;52.190;21.226;2023-08-08T19:16:56;100052.65;;;14.33;100.00
43691;BME280;29293;52.190;21.226;2023-08-08T19:32:05;100057.36;;;14.31;100.00
43691;BME280;29293;52.190;21.226;2023-08-08T19:47:14;100055.38;;;14.29;100.00
43691;BME280;29293;52.190;21.226;2023-08-08T20:02:21;100052.96;;;14.07;100.00
43691;BME280;29293;52.190;21.226;2023-08-08T20:17:29;100057.13;;;13.79;100.00
43691;BME280;29293;52.190;21.226;2023-08-08T20:32:36;100046.00;;;13.55;100.00
43691;BME280;29293;52.190;21.226;2023-08-08T20:47:43;100041.64;;;13.42;100.00
43691;BME280;29293;52.190;21.226;2023-08-08T21:02:54;100035.09;;;13.51;100.00
43691;BME280;29293;52.190;21.226;2023-08-08T21:18:04;100031.02;;;13.61;100.00
43691;BME280;29293;52.190;21.226;2023-08-08T21:33:13;100029.00;;;13.49;100.00
43691;BME280;29293;52.190;21.226;2023-08-08T21:48:26;100031.70;;;13.25;100.00
43691;BME280;29293;52.190;21.226;2023-08-08T22:03:33;100031.91;;;13.06;100.00
43691;BME280;29293;52.190;21.226;2023-08-08T22:18:39;100030.17;;;12.97;100.00
43691;BME280;29293;52.190;21.226;2023-08-08T22:33:47;100032.90;;;12.91;100.00
43691;BME280;29293;52.190;21.226;2023-08-08T22:48:53;100036.52;;;12.80;100.00
43691;BME280;29293;52.190;21.226;2023-08-08T23:04:08;100041.04;;;12.85;100.00
43691;BME280;29293;52.190;21.226;2023-08-08T23:19:15;100038.49;;;13.00;100.00
43691;BME280;29293;52.190;21.226;2023-08-08T23:34:22;100037.41;;;13.01;100.00
43691;BME280;29293;52.190;21.226;2023-08-08T23:49:29;100036.09;;;12.90;100.00
